CJS weather

Abraham González International Airport
Ciudad Juárez, Chihushua, Mexico

Public forecast

Using degrees Celsius for public forecast. Weather courtesy of forecast.io.

METAR (pilot weather report)

Report is more than 2 hours old.

Retrieved 2019/04/24 03:41 UTC (2 hours ago):

MMCS 240341Z 28014KT 10SM BKN030CB BKN100 16/08 A3002 RMK 8/360

TAF (pilot weather forecast)

Forecast is more than 6 hours old.

Retrieved 2019/04/23 18:38 UTC (11 hours ago):

TAF MMCS 231730Z 2318/2418 10015KT P6SM SCT080 FM232300 12010KT 5SM HZ BKN015CB TEMPO 2323/2403 23020G35KT 5SM TSRA FM240400 03020G35KT P6SM VC TS SCT030 BKN100 FM241400 03015G25KT P6SM SCT030 SCT250